createdAt,value
2022-11-27T00:00:07.353Z,95565.75
2022-11-27T00:02:08.929Z,95561.25
2022-11-27T00:04:12.166Z,95561.56
2022-11-27T00:06:16.204Z,95569.78
2022-11-27T00:08:17.675Z,95567.53
2022-11-27T00:10:19.312Z,95567.69
2022-11-27T00:12:20.933Z,95572.50
2022-11-27T00:14:22.601Z,95566.59
2022-11-27T00:16:25.829Z,95563.09
2022-11-27T00:18:27.907Z,95564.00
2022-11-27T00:20:29.976Z,95561.41
2022-11-27T00:22:31.546Z,95565.69
2022-11-27T00:24:33.884Z,95566.78
2022-11-27T00:26:38.114Z,95571.38
2022-11-27T00:28:40.312Z,95571.63
2022-11-27T00:30:41.985Z,95574.00
2022-11-27T00:32:43.618Z,95574.34
2022-11-27T00:34:45.195Z,95586.72
2022-11-27T00:36:48.402Z,95583.31
2022-11-27T00:38:50.225Z,95589.22
2022-11-27T00:40:51.913Z,95585.34
2022-11-27T00:42:53.522Z,95578.91
2022-11-27T00:44:55.199Z,95581.22
2022-11-27T00:46:56.992Z,95581.88
2022-11-27T00:49:00.009Z,95587.50
2022-11-27T00:51:07.147Z,95581.69
2022-11-27T00:53:08.776Z,95588.34
2022-11-27T00:55:10.400Z,95594.00
2022-11-27T00:57:11.962Z,95585.97
2022-11-27T00:59:13.515Z,95586.34
2022-11-27T01:01:22.085Z,95586.81
2022-11-27T01:03:24.380Z,95588.88
2022-11-27T01:05:26.029Z,95585.50
2022-11-27T01:07:27.738Z,95590.38
2022-11-27T01:09:29.444Z,95586.78
2022-11-27T01:11:33.097Z,95586.63
2022-11-27T01:13:36.120Z,95586.16
2022-11-27T01:15:37.924Z,95581.66
2022-11-27T01:17:39.595Z,95573.88
2022-11-27T01:19:41.413Z,95569.19
2022-11-27T01:21:43.393Z,95575.94
2022-11-27T01:23:45.576Z,95561.31
2022-11-27T01:25:47.466Z,95568.78
2022-11-27T01:27:49.267Z,95565.06
2022-11-27T01:29:50.896Z,95565.66
2022-11-27T01:31:52.552Z,95557.25
2022-11-27T01:33:57.274Z,95559.22
2022-11-27T01:36:02.169Z,95551.09
2022-11-27T01:38:04.243Z,95551.25
2022-11-27T01:40:06.879Z,95551.19
2022-11-27T01:42:11.188Z,95551.91
2022-11-27T01:44:25.129Z,95551.50
2022-11-27T01:46:49.567Z,95555.22
2022-11-27T01:48:53.143Z,95550.19
2022-11-27T01:50:54.801Z,95544.94
2022-11-27T01:53:02.560Z,95550.03
2022-11-27T01:55:29.401Z,95553.72
2022-11-27T01:57:36.126Z,95541.69
2022-11-27T01:59:38.186Z,95538.69
2022-11-27T02:01:39.915Z,95545.75
2022-11-27T02:03:41.710Z,95540.94
2022-11-27T02:05:43.342Z,95544.94
2022-11-27T02:07:45.859Z,95547.06
2022-11-27T02:09:47.748Z,95546.41
2022-11-27T02:12:06.166Z,95546.78
2022-11-27T02:14:37.832Z,95545.75
2022-11-27T02:16:40.460Z,95543.44
2022-11-27T02:19:05.881Z,95550.47
2022-11-27T02:21:13.196Z,95547.25
2022-11-27T02:23:23.625Z,95550.44
2022-11-27T02:25:56.384Z,95548.06
2022-11-27T02:28:10.644Z,95543.28
2022-11-27T02:30:12.268Z,95549.94
2022-11-27T02:32:19.938Z,95556.28
2022-11-27T02:34:43.707Z,95551.75
2022-11-27T02:36:53.341Z,95552.16
2022-11-27T02:39:19.202Z,95554.06
2022-11-27T02:41:54.876Z,95555.38
2022-11-27T02:43:57.476Z,95557.06
2022-11-27T02:45:59.624Z,95561.41
2022-11-27T02:48:01.529Z,95561.03
2022-11-27T02:50:04.179Z,95567.31
2022-11-27T02:52:06.325Z,95561.03
2022-11-27T02:54:10.608Z,95561.53
2022-11-27T02:56:17.172Z,95558.19
2022-11-27T02:58:22.552Z,95561.06
2022-11-27T03:00:24.557Z,95561.47
2022-11-27T03:02:34.042Z,95558.72
2022-11-27T03:04:51.737Z,95552.00
2022-11-27T03:06:58.749Z,95554.19
2022-11-27T03:09:07.771Z,95564.38
2022-11-27T03:11:11.673Z,95570.38
2022-11-27T03:13:13.241Z,95575.19
2022-11-27T03:15:15.141Z,95570.66
2022-11-27T03:17:51.718Z,95575.16
2022-11-27T03:19:56.970Z,95569.97
2022-11-27T03:22:01.032Z,95576.03
2022-11-27T03:24:03.015Z,95577.38
2022-11-27T03:26:04.760Z,95584.84
2022-11-27T03:28:08.528Z,95578.63
2022-11-27T03:30:11.507Z,95577.69
2022-11-27T03:32:13.230Z,95577.41
2022-11-27T03:34:16.442Z,95565.28
2022-11-27T03:36:20.175Z,95569.22
2022-11-27T03:38:21.844Z,95572.47
2022-11-27T03:40:30.614Z,95571.50
2022-11-27T03:42:58.597Z,95567.94
2022-11-27T03:45:00.189Z,95566.53
2022-11-27T03:47:21.397Z,95572.72
2022-11-27T03:49:37.856Z,95569.31
2022-11-27T03:51:43.998Z,95574.13
2022-11-27T03:54:17.939Z,95567.03
2022-11-27T03:57:13.650Z,95575.91
2022-11-27T03:59:20.303Z,95563.59
2022-11-27T04:01:24.965Z,95563.53
2022-11-27T04:03:29.089Z,95558.09
2022-11-27T04:05:31.042Z,95567.81
2022-11-27T04:07:32.940Z,95562.94
2022-11-27T04:09:34.610Z,95567.78
2022-11-27T04:11:36.622Z,95557.16
2022-11-27T04:13:38.299Z,95547.81
2022-11-27T04:15:39.965Z,95553.63
2022-11-27T04:17:41.526Z,95553.56
2022-11-27T04:19:43.098Z,95555.00
2022-11-27T04:21:44.704Z,95558.72
2022-11-27T04:23:46.423Z,95561.97
2022-11-27T04:25:49.062Z,95554.63
2022-11-27T04:27:51.023Z,95553.06
2022-11-27T04:29:53.335Z,95557.13
2022-11-27T04:31:55.072Z,95552.06
2022-11-27T04:33:56.690Z,95554.63
2022-11-27T04:35:58.345Z,95556.97
2022-11-27T04:38:00.167Z,95555.81
2022-11-27T04:40:02.045Z,95569.84
2022-11-27T04:42:03.824Z,95575.41
2022-11-27T04:44:05.909Z,95572.19
2022-11-27T04:46:07.651Z,95579.06
2022-11-27T04:48:09.330Z,95569.31
2022-11-27T04:50:11.213Z,95571.13
2022-11-27T04:52:12.836Z,95570.41
2022-11-27T04:54:14.391Z,95579.56
2022-11-27T04:56:15.989Z,95585.09
2022-11-27T04:58:17.646Z,95579.38
2022-11-27T05:00:20.125Z,95577.44
2022-11-27T05:02:22.030Z,95576.28
2022-11-27T05:04:23.760Z,95572.88
2022-11-27T05:06:25.611Z,95571.78
2022-11-27T05:08:30.454Z,95569.28
2022-11-27T05:10:32.325Z,95558.53
2022-11-27T05:12:33.944Z,95561.34
2022-11-27T05:14:35.564Z,95571.94
2022-11-27T05:16:37.477Z,95572.25
2022-11-27T05:18:39.179Z,95574.66
2022-11-27T05:20:40.983Z,95566.16
2022-11-27T05:22:44.214Z,95572.53
2022-11-27T05:24:45.901Z,95574.53
2022-11-27T05:26:48.002Z,95577.78
2022-11-27T05:28:49.637Z,95582.47
2022-11-27T05:30:51.459Z,95575.97
2022-11-27T05:32:53.137Z,95582.19
2022-11-27T05:34:54.780Z,95588.56
2022-11-27T05:36:56.348Z,95583.66
2022-11-27T05:38:58.113Z,95578.25
2022-11-27T05:40:59.793Z,95578.69
2022-11-27T05:43:01.379Z,95586.28
2022-11-27T05:45:03.213Z,95590.94
2022-11-27T05:47:05.035Z,95594.75
2022-11-27T05:49:06.795Z,95582.47
2022-11-27T05:51:08.923Z,95583.91
2022-11-27T05:53:10.548Z,95584.78
2022-11-27T05:55:12.524Z,95592.41
2022-11-27T05:57:14.407Z,95584.09
2022-11-27T05:59:16.092Z,95590.78
2022-11-27T06:01:18.520Z,95595.63
2022-11-27T06:03:20.224Z,95595.97
2022-11-27T06:05:22.073Z,95603.94
2022-11-27T06:07:23.777Z,95612.78
2022-11-27T06:09:25.431Z,95611.78
2022-11-27T06:11:27.418Z,95601.81
2022-11-27T06:13:29.248Z,95599.38
2022-11-27T06:15:30.960Z,95594.38
2022-11-27T06:17:32.624Z,95591.63
2022-11-27T06:19:34.210Z,95599.38
2022-11-27T06:21:36.081Z,95598.53
2022-11-27T06:23:37.783Z,95600.94
2022-11-27T06:25:39.492Z,95612.63
2022-11-27T06:27:41.278Z,95605.03
2022-11-27T06:29:42.916Z,95597.63
2022-11-27T06:31:44.489Z,95598.59
2022-11-27T06:33:50.600Z,95595.19
2022-11-27T06:35:55.488Z,95603.59
2022-11-27T06:37:57.264Z,95601.59
2022-11-27T06:39:59.013Z,95604.34
2022-11-27T06:42:00.569Z,95604.94
2022-11-27T06:44:02.881Z,95603.25
2022-11-27T06:46:05.915Z,95614.03
2022-11-27T06:48:07.588Z,95611.59
2022-11-27T06:50:09.406Z,95617.47
2022-11-27T06:52:11.053Z,95611.88
2022-11-27T06:54:13.148Z,95614.38
2022-11-27T06:56:17.456Z,95605.63
2022-11-27T06:58:19.224Z,95604.78
2022-11-27T07:00:21.112Z,95604.94
2022-11-27T07:02:22.805Z,95609.09
2022-11-27T07:04:24.779Z,95603.63
2022-11-27T07:06:27.477Z,95605.44
2022-11-27T07:08:29.291Z,95601.81
2022-11-27T07:10:34.025Z,95603.84
2022-11-27T07:12:35.662Z,95598.69
2022-11-27T07:14:37.562Z,95596.47
2022-11-27T07:16:39.287Z,95598.34
2022-11-27T07:18:43.277Z,95597.47
2022-11-27T07:20:55.044Z,95594.81
2022-11-27T07:22:58.197Z,95595.66
2022-11-27T07:24:59.868Z,95592.53
2022-11-27T07:27:01.507Z,95598.72
2022-11-27T07:29:03.156Z,95591.09
2022-11-27T07:31:05.289Z,95601.56
2022-11-27T07:33:07.135Z,95597.41
2022-11-27T07:35:09.239Z,95597.94
2022-11-27T07:37:11.078Z,95596.09
2022-11-27T07:39:12.689Z,95593.53
2022-11-27T07:41:15.273Z,95585.28
2022-11-27T07:43:16.948Z,95587.34
2022-11-27T07:45:18.654Z,95588.41
2022-11-27T07:47:20.289Z,95590.25
2022-11-27T07:49:21.912Z,95594.66
2022-11-27T07:51:23.626Z,95593.56
2022-11-27T07:53:25.547Z,95583.34
2022-11-27T07:55:27.211Z,95585.47
2022-11-27T07:57:28.864Z,95585.47
2022-11-27T07:59:30.487Z,95582.50
2022-11-27T08:01:32.160Z,95581.84
2022-11-27T08:03:34.010Z,95585.84
2022-11-27T08:05:36.727Z,95580.94
2022-11-27T08:07:38.469Z,95587.41
2022-11-27T08:09:40.208Z,95587.03
2022-11-27T08:11:42.012Z,95592.84
2022-11-27T08:13:43.729Z,95592.00
2022-11-27T08:15:46.295Z,95587.00
2022-11-27T08:17:47.985Z,95590.16
2022-11-27T08:19:49.669Z,95594.16
2022-11-27T08:21:51.295Z,95585.19
2022-11-27T08:23:52.938Z,95590.25
2022-11-27T08:25:54.647Z,95592.22
2022-11-27T08:27:56.550Z,95594.78
2022-11-27T08:29:58.146Z,95588.50
2022-11-27T08:31:59.801Z,95591.25
2022-11-27T08:34:01.539Z,95586.56
2022-11-27T08:36:03.677Z,95584.28
2022-11-27T08:38:05.381Z,95579.75
2022-11-27T08:40:07.848Z,95576.31
2022-11-27T08:42:09.522Z,95578.06
2022-11-27T08:44:11.490Z,95579.28
2022-11-27T08:46:13.283Z,95579.34
2022-11-27T08:48:14.940Z,95574.97
2022-11-27T08:50:16.597Z,95571.59
2022-11-27T08:52:18.302Z,95568.66
2022-11-27T08:54:19.979Z,95566.84
2022-11-27T08:56:25.533Z,95565.78
2022-11-27T08:58:27.189Z,95562.41
2022-11-27T09:00:28.957Z,95563.56
2022-11-27T09:02:30.781Z,95564.75
2022-11-27T09:04:32.524Z,95561.91
2022-11-27T09:06:37.320Z,95563.00
2022-11-27T09:08:40.688Z,95562.94
2022-11-27T09:10:42.334Z,95563.06
2022-11-27T09:12:46.759Z,95563.69
2022-11-27T09:14:48.401Z,95563.34
2022-11-27T09:16:50.028Z,95554.44
2022-11-27T09:18:54.149Z,95557.81
2022-11-27T09:21:00.609Z,95555.88
2022-11-27T09:23:02.688Z,95548.31
2022-11-27T09:25:04.562Z,95546.44
2022-11-27T09:27:06.357Z,95544.00
2022-11-27T09:29:08.315Z,95541.81
2022-11-27T09:31:12.980Z,95536.75
2022-11-27T09:33:14.795Z,95536.56
2022-11-27T09:35:16.522Z,95536.47
2022-11-27T09:37:18.216Z,95543.97
2022-11-27T09:39:20.329Z,95542.59
2022-11-27T09:41:46.595Z,95545.38
2022-11-27T09:43:58.276Z,95534.16
2022-11-27T09:46:04.093Z,95532.28
2022-11-27T09:48:09.423Z,95525.03
2022-11-27T09:50:11.053Z,95516.84
2022-11-27T09:52:19.702Z,95518.38
2022-11-27T09:54:21.350Z,95523.25
2022-11-27T09:56:23.253Z,95522.13
2022-11-27T09:58:27.834Z,95517.56
2022-11-27T10:00:29.593Z,95505.41
2022-11-27T10:02:32.879Z,95500.13
2022-11-27T10:04:58.002Z,95499.47
2022-11-27T10:07:09.119Z,95495.13
2022-11-27T10:09:16.798Z,95496.25
2022-11-27T10:11:22.865Z,95500.41
2022-11-27T10:13:42.988Z,95501.75
2022-11-27T10:16:04.410Z,95493.16
2022-11-27T10:18:13.804Z,95490.72
2022-11-27T10:20:30.517Z,95480.75
2022-11-27T10:22:51.334Z,95482.94
2022-11-27T10:25:14.699Z,95482.63
2022-11-27T10:27:36.818Z,95473.31
2022-11-27T10:29:40.897Z,95466.34
2022-11-27T10:31:50.702Z,95459.69
2022-11-27T10:33:55.275Z,95463.31
2022-11-27T10:35:57.526Z,95460.47
2022-11-27T10:38:18.172Z,95448.97
2022-11-27T10:40:27.435Z,95452.91
2022-11-27T10:42:40.726Z,95452.13
2022-11-27T10:44:47.890Z,95447.84
2022-11-27T10:46:51.257Z,95448.09
2022-11-27T10:48:53.185Z,95450.28
2022-11-27T10:50:54.820Z,95445.50
2022-11-27T10:53:00.607Z,95446.19
2022-11-27T10:55:05.044Z,95446.25
2022-11-27T10:57:31.425Z,95446.53
2022-11-27T11:00:08.190Z,95439.81
2022-11-27T11:02:29.868Z,95438.81
2022-11-27T11:04:37.986Z,95431.16
2022-11-27T11:06:44.899Z,95434.81
2022-11-27T11:08:46.662Z,95432.31
2022-11-27T11:11:24.346Z,95430.59
2022-11-27T11:13:28.187Z,95432.31
2022-11-27T11:15:29.653Z,95425.41
2022-11-27T11:17:37.210Z,95424.75
2022-11-27T11:19:39.166Z,95426.44
2022-11-27T11:21:45.093Z,95417.84
2022-11-27T11:23:58.451Z,95420.56
2022-11-27T11:26:25.687Z,95411.31
2022-11-27T11:28:27.755Z,95409.28
2022-11-27T11:30:29.868Z,95409.41
2022-11-27T11:32:36.930Z,95400.69
2022-11-27T11:34:47.958Z,95397.75
2022-11-27T11:36:56.812Z,95395.25
2022-11-27T11:38:58.629Z,95397.66
2022-11-27T11:41:04.010Z,95398.50
2022-11-27T11:43:21.639Z,95390.78
2022-11-27T11:45:24.944Z,95386.00
2022-11-27T11:47:28.303Z,95388.63
2022-11-27T11:49:32.264Z,95392.56
2022-11-27T11:51:52.193Z,95387.25
2022-11-27T11:54:07.731Z,95386.44
2022-11-27T11:56:35.740Z,95380.50
2022-11-27T11:58:53.986Z,95376.41
2022-11-27T12:01:26.752Z,95371.50
2022-11-27T12:03:37.138Z,95370.59
2022-11-27T12:06:10.678Z,95370.41
2022-11-27T12:08:21.717Z,95367.34
2022-11-27T12:10:43.143Z,95364.25
2022-11-27T12:13:07.764Z,95361.16
2022-11-27T12:15:18.325Z,95355.50
2022-11-27T12:17:25.919Z,95361.66
2022-11-27T12:19:56.785Z,95356.22
2022-11-27T12:22:26.186Z,95353.97
2022-11-27T12:24:33.483Z,95353.97
2022-11-27T12:26:56.547Z,95353.16
2022-11-27T12:29:16.562Z,95347.69
2022-11-27T12:31:41.326Z,95351.38
2022-11-27T12:34:14.721Z,95355.84
2022-11-27T12:36:19.091Z,95352.53
2022-11-27T12:38:42.437Z,95351.00
2022-11-27T12:41:13.883Z,95343.66
2022-11-27T12:43:26.799Z,95345.56
2022-11-27T12:45:33.431Z,95342.94
2022-11-27T12:47:40.526Z,95343.44
2022-11-27T12:49:45.841Z,95346.50
2022-11-27T12:52:09.906Z,95337.38
2022-11-27T12:54:37.057Z,95344.13
2022-11-27T12:56:42.920Z,95339.88
2022-11-27T12:58:53.967Z,95339.16
2022-11-27T13:01:01.892Z,95334.09
2022-11-27T13:03:07.461Z,95342.03
2022-11-27T13:05:22.812Z,95341.53
2022-11-27T13:07:44.290Z,95337.66
2022-11-27T13:10:08.322Z,95334.31
2022-11-27T13:12:29.451Z,95331.47
2022-11-27T13:14:31.304Z,95332.66
2022-11-27T13:16:38.924Z,95334.44
2022-11-27T13:18:45.986Z,95339.53
2022-11-27T13:20:52.305Z,95334.22
2022-11-27T13:22:54.451Z,95333.75
2022-11-27T13:24:56.809Z,95324.63
2022-11-27T13:27:12.324Z,95323.22
2022-11-27T13:29:26.038Z,95332.59
2022-11-27T13:31:31.676Z,95318.59
2022-11-27T13:33:35.357Z,95320.75
2022-11-27T13:35:40.072Z,95321.09
2022-11-27T13:37:42.163Z,95320.28
2022-11-27T13:39:44.879Z,95319.69
2022-11-27T13:41:48.228Z,95324.31
2022-11-27T13:43:51.258Z,95308.66
2022-11-27T13:46:01.621Z,95321.31
2022-11-27T13:48:27.344Z,95316.00
2022-11-27T13:50:31.677Z,95317.28
2022-11-27T13:52:34.231Z,95322.84
2022-11-27T13:54:36.039Z,95316.22
2022-11-27T13:56:38.124Z,95327.44
2022-11-27T13:58:42.193Z,95322.03
2022-11-27T14:00:45.762Z,95322.75
2022-11-27T14:02:52.123Z,95324.38
2022-11-27T14:04:56.688Z,95328.06
2022-11-27T14:07:07.499Z,95334.44
2022-11-27T14:09:09.460Z,95329.13
2022-11-27T14:11:13.270Z,95330.66
2022-11-27T14:13:15.106Z,95326.16
2022-11-27T14:15:16.692Z,95320.25
2022-11-27T14:17:34.553Z,95327.13
2022-11-27T14:19:45.448Z,95329.47
2022-11-27T14:21:47.253Z,95331.72
2022-11-27T14:23:50.632Z,95324.28
2022-11-27T14:26:21.336Z,95330.09
2022-11-27T14:28:26.182Z,95326.88
2022-11-27T14:30:33.317Z,95319.56
2022-11-27T14:32:36.166Z,95324.06
2022-11-27T14:34:37.802Z,95316.25
2022-11-27T14:36:39.426Z,95325.50
2022-11-27T14:38:40.992Z,95328.56
2022-11-27T14:40:42.996Z,95325.00
2022-11-27T14:42:44.612Z,95326.91
2022-11-27T14:44:46.287Z,95327.38
2022-11-27T14:46:48.180Z,95330.31
2022-11-27T14:48:56.409Z,95325.25
2022-11-27T14:50:58.724Z,95324.53
2022-11-27T14:53:00.458Z,95320.50
2022-11-27T14:55:02.633Z,95325.56
2022-11-27T14:57:05.238Z,95318.47
2022-11-27T14:59:06.985Z,95317.91
2022-11-27T15:01:08.650Z,95321.53
2022-11-27T15:03:10.903Z,95318.22
2022-11-27T15:05:24.157Z,95318.72
2022-11-27T15:07:29.447Z,95312.91
2022-11-27T15:09:32.705Z,95318.63
2022-11-27T15:11:54.539Z,95317.44
2022-11-27T15:14:00.539Z,95314.69
2022-11-27T15:16:18.626Z,95319.31
2022-11-27T15:18:25.069Z,95313.88
2022-11-27T15:20:41.431Z,95322.63
2022-11-27T15:22:54.624Z,95322.84
2022-11-27T15:25:01.174Z,95327.81
2022-11-27T15:27:15.059Z,95326.16
2022-11-27T15:29:36.172Z,95332.78
2022-11-27T15:31:38.599Z,95329.59
2022-11-27T15:33:40.322Z,95331.03
2022-11-27T15:35:42.301Z,95317.78
2022-11-27T15:37:43.969Z,95326.06
2022-11-27T15:39:48.909Z,95318.00
2022-11-27T15:42:01.127Z,95321.31
2022-11-27T15:44:03.324Z,95328.56
2022-11-27T15:46:06.321Z,95325.94
2022-11-27T15:48:19.057Z,95325.94
2022-11-27T15:50:20.708Z,95318.38
2022-11-27T15:52:22.876Z,95321.31
2022-11-27T15:54:24.989Z,95322.63
2022-11-27T15:56:27.828Z,95325.34
2022-11-27T15:58:29.733Z,95325.47
2022-11-27T16:00:31.464Z,95315.88
2022-11-27T16:02:33.181Z,95319.19
2022-11-27T16:04:35.018Z,95318.94
2022-11-27T16:06:37.498Z,95324.69
2022-11-27T16:08:39.304Z,95318.78
2022-11-27T16:10:42.063Z,95313.78
2022-11-27T16:12:43.712Z,95319.06
2022-11-27T16:14:45.386Z,95319.22
2022-11-27T16:16:47.351Z,95316.97
2022-11-27T16:18:49.089Z,95316.09
2022-11-27T16:20:50.698Z,95317.97
2022-11-27T16:22:52.760Z,95309.34
2022-11-27T16:24:54.398Z,95313.00
2022-11-27T16:26:56.009Z,95314.16
2022-11-27T16:28:58.426Z,95326.88
2022-11-27T16:31:02.544Z,95320.78
2022-11-27T16:33:04.169Z,95317.16
2022-11-27T16:35:07.131Z,95318.19
2022-11-27T16:37:08.814Z,95323.19
2022-11-27T16:39:29.010Z,95320.00
2022-11-27T16:41:30.679Z,95309.06
2022-11-27T16:43:37.864Z,95310.84
2022-11-27T16:45:39.771Z,95313.41
2022-11-27T16:47:41.490Z,95313.56
2022-11-27T16:49:43.159Z,95314.34
2022-11-27T16:51:44.944Z,95310.69
2022-11-27T16:53:48.267Z,95310.03
2022-11-27T16:55:49.928Z,95305.66
2022-11-27T16:57:51.799Z,95311.03
2022-11-27T16:59:53.434Z,95308.97
2022-11-27T17:01:55.662Z,95317.63
2022-11-27T17:03:58.082Z,95310.75
2022-11-27T17:05:59.866Z,95317.19
2022-11-27T17:08:01.681Z,95314.53
2022-11-27T17:10:04.179Z,95315.94
2022-11-27T17:12:06.415Z,95320.69
2022-11-27T17:14:09.430Z,95319.72
2022-11-27T17:16:11.285Z,95319.53
2022-11-27T17:18:13.042Z,95312.34
2022-11-27T17:20:14.723Z,95314.31
2022-11-27T17:22:16.357Z,95306.91
2022-11-27T17:24:18.098Z,95315.84
2022-11-27T17:26:21.755Z,95315.13
2022-11-27T17:28:23.412Z,95305.88
2022-11-27T17:30:25.415Z,95313.06
2022-11-27T17:32:27.044Z,95314.97
2022-11-27T17:34:28.855Z,95313.34
2022-11-27T17:36:36.528Z,95312.59
2022-11-27T17:38:39.332Z,95310.75
2022-11-27T17:40:41.335Z,95311.69
2022-11-27T17:42:42.998Z,95310.38
2022-11-27T17:44:44.714Z,95321.47
2022-11-27T17:46:50.117Z,95306.09
2022-11-27T17:48:52.774Z,95309.34
2022-11-27T17:50:54.996Z,95315.09
2022-11-27T17:52:56.767Z,95315.38
2022-11-27T17:54:58.617Z,95315.38
2022-11-27T17:57:00.462Z,95312.78
2022-11-27T17:59:02.181Z,95310.09
2022-11-27T18:01:05.455Z,95308.97
2022-11-27T18:03:07.590Z,95313.94
2022-11-27T18:05:09.571Z,95316.75
2022-11-27T18:07:12.215Z,95300.88
2022-11-27T18:09:13.990Z,95307.31
2022-11-27T18:11:18.524Z,95301.94
2022-11-27T18:13:20.215Z,95308.78
2022-11-27T18:15:21.876Z,95302.16
2022-11-27T18:17:23.591Z,95308.97
2022-11-27T18:19:25.405Z,95306.78
2022-11-27T18:21:28.588Z,95308.16
2022-11-27T18:23:30.330Z,95297.69
2022-11-27T18:25:32.030Z,95304.81
2022-11-27T18:27:34.401Z,95306.78
2022-11-27T18:29:38.013Z,95301.72
2022-11-27T18:31:41.375Z,95304.50
2022-11-27T18:33:43.433Z,95300.16
2022-11-27T18:35:45.164Z,95301.50
2022-11-27T18:37:50.313Z,95301.75
2022-11-27T18:39:52.021Z,95295.28
2022-11-27T18:41:53.721Z,95295.81
2022-11-27T18:43:58.387Z,95295.69
2022-11-27T18:46:00.148Z,95297.47
2022-11-27T18:48:02.092Z,95293.97
2022-11-27T18:50:04.185Z,95295.38
2022-11-27T18:52:06.683Z,95300.88
2022-11-27T18:54:08.425Z,95296.09
2022-11-27T18:56:15.717Z,95303.38
2022-11-27T18:58:17.384Z,95305.16
2022-11-27T19:00:19.528Z,95295.91
2022-11-27T19:02:21.238Z,95291.88
2022-11-27T19:04:22.925Z,95298.41
2022-11-27T19:06:25.159Z,95297.16
2022-11-27T19:08:27.026Z,95301.41
2022-11-27T19:10:28.722Z,95301.94
2022-11-27T19:12:30.475Z,95301.84
2022-11-27T19:14:32.266Z,95299.56
2022-11-27T19:16:36.810Z,95299.88
2022-11-27T19:18:38.577Z,95301.59
2022-11-27T19:20:40.516Z,95299.00
2022-11-27T19:22:42.142Z,95304.41
2022-11-27T19:24:43.828Z,95302.66
2022-11-27T19:26:45.492Z,95296.81
2022-11-27T19:28:55.116Z,95291.13
2022-11-27T19:30:56.863Z,95297.69
2022-11-27T19:32:58.604Z,95298.19
2022-11-27T19:35:05.671Z,95295.06
2022-11-27T19:37:09.157Z,95292.38
2022-11-27T19:39:14.913Z,95289.06
2022-11-27T19:41:18.056Z,95297.16
2022-11-27T19:43:19.766Z,95289.28
2022-11-27T19:45:24.899Z,95291.47
2022-11-27T19:47:26.633Z,95294.06
2022-11-27T19:49:28.351Z,95288.97
2022-11-27T19:51:33.561Z,95292.38
2022-11-27T19:53:35.262Z,95294.69
2022-11-27T19:55:36.976Z,95293.22
2022-11-27T19:57:38.701Z,95293.50
2022-11-27T19:59:40.435Z,95291.38
2022-11-27T20:01:42.406Z,95292.69
2022-11-27T20:03:45.422Z,95288.66
2022-11-27T20:05:47.042Z,95296.31
2022-11-27T20:07:48.784Z,95284.50
2022-11-27T20:09:50.763Z,95288.47
2022-11-27T20:11:52.524Z,95292.59
2022-11-27T20:13:58.316Z,95292.28
2022-11-27T20:16:00.256Z,95287.31
2022-11-27T20:18:01.930Z,95290.50
2022-11-27T20:20:03.755Z,95289.78
2022-11-27T20:22:05.461Z,95290.09
2022-11-27T20:24:07.186Z,95286.13
2022-11-27T20:26:11.321Z,95286.41
2022-11-27T20:28:13.051Z,95286.09
2022-11-27T20:30:14.848Z,95281.53
2022-11-27T20:32:16.468Z,95289.00
2022-11-27T20:34:21.042Z,95282.88
2022-11-27T20:36:23.537Z,95284.31
2022-11-27T20:38:26.648Z,95282.75
2022-11-27T20:40:28.621Z,95283.47
2022-11-27T20:42:30.375Z,95275.50
2022-11-27T20:44:32.220Z,95277.66
2022-11-27T20:46:34.243Z,95275.78
2022-11-27T20:48:36.004Z,95277.44
2022-11-27T20:50:52.912Z,95281.69
2022-11-27T20:52:54.595Z,95279.78
2022-11-27T20:54:57.781Z,95276.16
2022-11-27T20:56:59.607Z,95272.00
2022-11-27T20:59:01.620Z,95275.44
2022-11-27T21:01:26.385Z,95272.97
2022-11-27T21:03:29.324Z,95278.03
2022-11-27T21:05:30.968Z,95279.59
2022-11-27T21:07:36.546Z,95280.31
2022-11-27T21:09:38.300Z,95273.25
2022-11-27T21:11:40.532Z,95273.28
2022-11-27T21:13:42.517Z,95264.50
2022-11-27T21:15:47.927Z,95269.50
2022-11-27T21:17:49.753Z,95270.22
2022-11-27T21:19:51.758Z,95266.19
2022-11-27T21:21:54.276Z,95264.13
2022-11-27T21:23:56.056Z,95260.31
2022-11-27T21:25:57.782Z,95259.28
2022-11-27T21:27:59.745Z,95260.44
2022-11-27T21:30:01.384Z,95254.41
2022-11-27T21:32:03.543Z,95258.34
2022-11-27T21:34:06.865Z,95260.63
2022-11-27T21:36:08.594Z,95255.75
2022-11-27T21:38:10.291Z,95250.69
2022-11-27T21:40:12.707Z,95256.72
2022-11-27T21:42:14.390Z,95254.44
2022-11-27T21:44:18.792Z,95251.75
2022-11-27T21:46:22.617Z,95258.59
2022-11-27T21:48:24.238Z,95255.09
2022-11-27T21:50:25.894Z,95251.53
2022-11-27T21:52:27.502Z,95256.31
2022-11-27T21:54:29.275Z,95249.75
2022-11-27T21:56:34.103Z,95253.28
2022-11-27T21:58:36.560Z,95244.06
2022-11-27T22:00:38.327Z,95248.31
2022-11-27T22:02:40.621Z,95245.72
2022-11-27T22:04:43.826Z,95249.59
2022-11-27T22:06:46.338Z,95236.22
2022-11-27T22:08:49.891Z,95241.59
2022-11-27T22:10:51.622Z,95247.81
2022-11-27T22:12:53.374Z,95245.44
2022-11-27T22:14:55.040Z,95244.91
2022-11-27T22:16:57.175Z,95236.81
2022-11-27T22:18:59.787Z,95237.13
2022-11-27T22:21:05.971Z,95234.53
2022-11-27T22:23:07.750Z,95233.09
2022-11-27T22:25:09.614Z,95232.56
2022-11-27T22:27:11.263Z,95221.25
2022-11-27T22:29:12.985Z,95224.19
2022-11-27T22:31:25.252Z,95221.19
2022-11-27T22:33:26.915Z,95223.75
2022-11-27T22:35:28.547Z,95212.59
2022-11-27T22:37:30.198Z,95215.59
2022-11-27T22:39:32.513Z,95218.38
2022-11-27T22:41:36.661Z,95208.63
2022-11-27T22:43:39.197Z,95209.25
2022-11-27T22:45:44.325Z,95202.81
2022-11-27T22:47:46.488Z,95206.66
2022-11-27T22:49:48.367Z,95201.56
2022-11-27T22:51:50.004Z,95203.03
2022-11-27T22:53:52.221Z,95206.44
2022-11-27T22:55:54.300Z,95211.44
2022-11-27T22:57:55.933Z,95207.38
2022-11-27T22:59:57.722Z,95202.50
2022-11-27T23:01:59.513Z,95207.97
2022-11-27T23:04:02.297Z,95207.78
2022-11-27T23:06:04.423Z,95203.81
2022-11-27T23:08:06.637Z,95204.00
2022-11-27T23:10:09.552Z,95209.50
2022-11-27T23:12:11.229Z,95209.03
2022-11-27T23:14:13.261Z,95208.84
2022-11-27T23:16:15.178Z,95200.09
2022-11-27T23:18:16.867Z,95198.94
2022-11-27T23:20:18.574Z,95204.66
2022-11-27T23:22:20.291Z,95201.00
2022-11-27T23:24:23.123Z,95196.41
2022-11-27T23:26:24.762Z,95199.72
2022-11-27T23:28:26.467Z,95201.59
2022-11-27T23:30:28.162Z,95198.06
2022-11-27T23:32:29.867Z,95193.09
2022-11-27T23:34:31.539Z,95190.81
2022-11-27T23:36:34.032Z,95193.31
2022-11-27T23:38:35.895Z,95193.75
2022-11-27T23:40:37.637Z,95191.88
2022-11-27T23:42:39.348Z,95186.69
2022-11-27T23:44:42.389Z,95189.28
2022-11-27T23:46:44.212Z,95194.00
2022-11-27T23:48:46.011Z,95190.16
2022-11-27T23:50:47.631Z,95182.38
2022-11-27T23:52:49.335Z,95191.94
2022-11-27T23:54:51.126Z,95189.94
2022-11-27T23:56:52.858Z,95196.06
2022-11-27T23:58:55.894Z,95189.94
